createdAt,value
2022-09-20T00:00:43.702Z,6.78
2022-09-20T00:03:10.906Z,7.05
2022-09-20T00:05:39.322Z,7.68
2022-09-20T00:08:07.984Z,7.00
2022-09-20T00:10:37.977Z,7.40
2022-09-20T00:13:06.312Z,7.57
2022-09-20T00:15:33.454Z,6.90
2022-09-20T00:18:00.002Z,7.70
2022-09-20T00:20:26.771Z,7.70
2022-09-20T00:22:53.227Z,8.63
2022-09-20T00:25:20.614Z,7.10
2022-09-20T00:27:46.971Z,6.53
2022-09-20T00:30:13.700Z,8.48
2022-09-20T00:32:40.872Z,7.10
2022-09-20T00:35:08.113Z,6.90
2022-09-20T00:37:35.145Z,6.93
2022-09-20T00:40:02.895Z,7.93
2022-09-20T00:42:31.359Z,6.82
2022-09-20T00:45:02.122Z,8.47
2022-09-20T00:47:48.848Z,11.57
2022-09-20T00:50:38.157Z,10.25
2022-09-20T00:53:11.436Z,8.32
2022-09-20T00:56:00.382Z,6.93
2022-09-20T00:58:29.239Z,6.73
2022-09-20T01:00:57.581Z,6.03
2022-09-20T01:03:29.895Z,8.80
2022-09-20T01:05:57.593Z,6.15
2022-09-20T01:08:26.838Z,6.88
2022-09-20T01:10:53.709Z,8.47
2022-09-20T01:13:20.089Z,8.05
2022-09-20T01:15:49.365Z,6.88
2022-09-20T01:18:16.803Z,6.85
2022-09-20T01:20:45.703Z,6.55
2022-09-20T01:24:02.197Z,7.23
2022-09-20T01:26:50.201Z,5.97
2022-09-20T01:29:40.039Z,7.60
2022-09-20T01:32:12.566Z,7.30
2022-09-20T01:34:49.811Z,5.60
2022-09-20T01:37:56.671Z,7.33
2022-09-20T01:41:11.075Z,9.18
2022-09-20T01:43:46.854Z,7.53
2022-09-20T01:46:30.363Z,7.70
2022-09-20T01:49:28.403Z,9.25
2022-09-20T01:52:33.863Z,7.07
2022-09-20T01:55:18.302Z,7.03
2022-09-20T01:58:03.088Z,9.10
2022-09-20T02:00:37.270Z,7.18
2022-09-20T02:03:31.276Z,9.05
2022-09-20T02:06:42.153Z,7.30
2022-09-20T02:09:33.502Z,7.28
2022-09-20T02:12:38.838Z,5.93
2022-09-20T02:15:23.337Z,8.13
2022-09-20T02:18:21.755Z,10.30
2022-09-20T02:20:50.750Z,8.10
2022-09-20T02:24:00.561Z,8.55
2022-09-20T02:27:02.291Z,7.45
2022-09-20T02:29:54.942Z,7.85
2022-09-20T02:32:43.019Z,8.25
2022-09-20T02:35:19.497Z,8.10
2022-09-20T02:37:48.846Z,9.93
2022-09-20T02:40:15.277Z,7.78
2022-09-20T02:42:53.603Z,6.78
2022-09-20T02:45:30.245Z,9.07
2022-09-20T02:48:02.909Z,9.73
2022-09-20T02:50:54.438Z,7.30
2022-09-20T02:53:52.042Z,8.65
2022-09-20T02:56:27.556Z,7.93
2022-09-20T02:59:13.982Z,7.90
2022-09-20T03:01:52.876Z,8.50
2022-09-20T03:04:22.449Z,7.50
2022-09-20T03:06:48.778Z,6.53
2022-09-20T03:09:30.413Z,9.15
2022-09-20T03:12:04.823Z,6.68
2022-09-20T03:14:37.360Z,7.10
2022-09-20T03:17:27.306Z,7.10
2022-09-20T03:20:32.213Z,7.78
2022-09-20T03:23:18.116Z,7.63
2022-09-20T03:26:11.294Z,6.78
2022-09-20T03:29:08.507Z,6.70
2022-09-20T03:31:52.692Z,7.03
2022-09-20T03:34:40.488Z,8.60
2022-09-20T03:37:26.081Z,7.68
2022-09-20T03:40:22.351Z,7.60
2022-09-20T03:42:51.839Z,8.57
2022-09-20T03:45:36.986Z,7.38
2022-09-20T03:48:21.666Z,8.85
2022-09-20T03:50:54.191Z,9.70
2022-09-20T03:53:51.805Z,7.70
2022-09-20T03:56:37.723Z,6.47
2022-09-20T03:59:36.122Z,8.77
2022-09-20T04:02:33.153Z,7.40
2022-09-20T04:05:04.227Z,11.48
2022-09-20T04:07:43.597Z,8.35
2022-09-20T04:10:31.543Z,8.20
2022-09-20T04:13:35.170Z,6.93
2022-09-20T04:16:20.537Z,6.28
2022-09-20T04:18:52.997Z,7.85
2022-09-20T04:21:24.741Z,6.45
2022-09-20T04:24:17.144Z,7.10
2022-09-20T04:26:48.403Z,7.47
2022-09-20T04:29:36.974Z,8.05
2022-09-20T04:32:25.519Z,7.88
2022-09-20T04:35:20.106Z,8.15
2022-09-20T04:37:47.339Z,6.77
2022-09-20T04:40:41.293Z,7.00
2022-09-20T04:43:32.904Z,6.82
2022-09-20T04:46:47.515Z,7.93
2022-09-20T04:49:36.683Z,5.90
2022-09-20T04:52:48.157Z,8.43
2022-09-20T04:55:35.367Z,6.65
2022-09-20T04:58:33.120Z,6.47
2022-09-20T05:01:33.932Z,9.18
2022-09-20T05:04:42.560Z,7.97
2022-09-20T05:07:39.710Z,7.20
2022-09-20T05:10:25.719Z,6.18
2022-09-20T05:13:17.230Z,7.32
2022-09-20T05:15:58.669Z,8.82
2022-09-20T05:18:56.195Z,7.65
2022-09-20T05:21:47.658Z,7.67
2022-09-20T05:24:16.877Z,7.07
2022-09-20T05:26:53.233Z,7.47
2022-09-20T05:29:42.283Z,10.38
2022-09-20T05:32:34.679Z,9.10
2022-09-20T05:35:07.786Z,8.23
2022-09-20T05:38:02.664Z,7.03
2022-09-20T05:41:07.473Z,12.23
2022-09-20T05:43:39.485Z,6.30
2022-09-20T05:46:15.050Z,6.18
2022-09-20T05:49:03.334Z,7.70
2022-09-20T05:51:58.301Z,6.60
2022-09-20T05:54:55.567Z,7.00
2022-09-20T05:57:50.105Z,6.57
2022-09-20T06:00:20.375Z,7.50
2022-09-20T06:03:23.056Z,6.60
2022-09-20T06:06:03.267Z,7.22
2022-09-20T06:08:51.477Z,7.97
2022-09-20T06:11:57.046Z,8.02
2022-09-20T06:14:27.669Z,7.15
2022-09-20T06:17:04.863Z,6.40
2022-09-20T06:19:47.761Z,7.03
2022-09-20T06:22:20.221Z,6.55
2022-09-20T06:24:53.150Z,7.30
2022-09-20T06:27:34.868Z,6.95
2022-09-20T06:30:06.095Z,8.17
2022-09-20T06:32:34.229Z,7.00
2022-09-20T06:35:02.828Z,8.32
2022-09-20T06:38:13.370Z,7.53
2022-09-20T06:41:03.161Z,8.35
2022-09-20T06:43:31.496Z,6.73
2022-09-20T06:45:58.638Z,6.78
2022-09-20T06:48:25.440Z,5.70
2022-09-20T06:50:52.346Z,6.88
2022-09-20T06:53:32.622Z,7.60
2022-09-20T06:56:00.985Z,6.53
2022-09-20T06:58:28.222Z,5.97
2022-09-20T07:00:54.744Z,7.15
2022-09-20T07:03:21.211Z,6.75
2022-09-20T07:05:47.878Z,6.88
2022-09-20T07:08:14.298Z,6.77
2022-09-20T07:10:41.215Z,8.23
2022-09-20T07:13:07.593Z,6.68
2022-09-20T07:15:35.177Z,6.30
2022-09-20T07:18:01.625Z,7.18
2022-09-20T07:20:28.161Z,5.70
2022-09-20T07:22:54.696Z,5.68
2022-09-20T07:25:21.953Z,6.05
2022-09-20T07:27:52.628Z,6.32
2022-09-20T07:30:20.346Z,6.70
2022-09-20T07:32:46.886Z,6.50
2022-09-20T07:35:13.702Z,5.57
2022-09-20T07:37:43.531Z,5.45
2022-09-20T07:40:11.126Z,5.47
2022-09-20T07:42:38.077Z,5.93
2022-09-20T07:45:04.882Z,4.77
2022-09-20T07:47:35.415Z,5.95
2022-09-20T07:50:02.752Z,6.32
2022-09-20T07:52:29.178Z,6.72
2022-09-20T07:54:56.190Z,5.43
2022-09-20T07:57:22.581Z,6.00
2022-09-20T07:59:49.001Z,6.85
2022-09-20T08:02:16.137Z,4.72
2022-09-20T08:04:43.231Z,6.07
2022-09-20T08:07:09.878Z,6.70
2022-09-20T08:09:36.278Z,6.30
2022-09-20T08:14:49.654Z,4.60
2022-09-20T08:17:16.317Z,5.18
2022-09-20T08:19:43.357Z,5.10
2022-09-20T08:22:10.913Z,5.20
2022-09-20T08:24:37.390Z,4.90
2022-09-20T08:27:04.614Z,5.30
2022-09-20T08:29:31.153Z,5.03
2022-09-20T08:31:58.710Z,5.65
2022-09-20T08:34:25.197Z,6.00
2022-09-20T08:36:56.395Z,5.05
2022-09-20T08:42:32.996Z,5.03
2022-09-20T08:45:05.007Z,5.25
2022-09-20T08:47:35.353Z,5.57
2022-09-20T08:50:10.058Z,5.65
2022-09-20T08:52:41.447Z,5.70
2022-09-20T08:55:20.402Z,5.82
2022-09-20T08:57:56.275Z,8.65
2022-09-20T09:00:26.253Z,5.83
2022-09-20T09:02:55.987Z,5.60
2022-09-20T09:05:34.833Z,6.07
2022-09-20T09:08:07.801Z,5.80
2022-09-20T09:10:45.113Z,5.45
2022-09-20T09:13:21.837Z,5.30
2022-09-20T09:15:54.468Z,6.00
2022-09-20T09:18:21.506Z,5.45
2022-09-20T09:20:50.256Z,5.65
2022-09-20T09:23:27.073Z,5.05
2022-09-20T09:25:56.777Z,5.63
2022-09-20T09:28:29.299Z,5.53
2022-09-20T09:31:23.227Z,5.18
2022-09-20T09:33:50.013Z,6.10
2022-09-20T09:36:22.541Z,7.78
2022-09-20T09:38:49.594Z,5.53
2022-09-20T09:41:29.765Z,5.50
2022-09-20T09:44:00.822Z,5.07
2022-09-20T09:46:32.202Z,7.20
2022-09-20T09:49:13.230Z,5.72
2022-09-20T09:51:43.091Z,4.90
2022-09-20T09:54:18.806Z,6.57
2022-09-20T09:56:57.328Z,5.70
2022-09-20T09:59:40.219Z,7.70
2022-09-20T10:02:35.954Z,6.38
2022-09-20T10:05:11.329Z,5.37
2022-09-20T10:07:43.909Z,4.53
2022-09-20T10:10:23.314Z,6.75
2022-09-20T10:13:08.703Z,4.68
2022-09-20T10:16:09.418Z,5.68
2022-09-20T10:18:49.918Z,5.00
2022-09-20T10:21:50.888Z,6.70
2022-09-20T10:25:03.133Z,5.40
2022-09-20T10:28:05.381Z,5.43
2022-09-20T10:30:57.469Z,5.50
2022-09-20T10:33:50.282Z,5.73
2022-09-20T10:36:26.413Z,5.43
2022-09-20T10:38:55.706Z,6.03
2022-09-20T10:41:53.332Z,6.70
2022-09-20T10:44:19.830Z,6.43
2022-09-20T10:47:10.869Z,4.23
2022-09-20T10:49:51.109Z,6.15
2022-09-20T10:52:56.764Z,3.30
2022-09-20T10:55:48.616Z,4.40
2022-09-20T10:58:38.658Z,5.25
2022-09-20T11:01:23.168Z,3.27
2022-09-20T11:04:30.863Z,2.08
2022-09-20T11:07:20.901Z,3.35
2022-09-20T11:10:02.688Z,3.17
2022-09-20T11:12:33.265Z,4.13
2022-09-20T11:15:04.803Z,3.47
2022-09-20T11:17:53.384Z,4.40
2022-09-20T11:20:27.418Z,8.38
2022-09-20T11:23:00.722Z,7.35
2022-09-20T11:25:38.560Z,6.22
2022-09-20T11:28:14.057Z,6.90
2022-09-20T11:31:03.019Z,5.25
2022-09-20T11:33:41.607Z,4.72
2022-09-20T11:36:15.403Z,5.53
2022-09-20T11:38:53.073Z,4.88
2022-09-20T11:41:30.688Z,5.87
2022-09-20T11:44:06.969Z,5.65
2022-09-20T11:46:40.225Z,7.88
2022-09-20T11:49:31.058Z,7.70
2022-09-20T11:52:06.217Z,6.13
2022-09-20T11:55:14.497Z,6.10
2022-09-20T11:57:41.030Z,6.18
2022-09-20T12:00:09.676Z,6.35
2022-09-20T12:02:40.752Z,5.30
2022-09-20T12:05:24.838Z,5.40
2022-09-20T12:07:55.140Z,6.63
2022-09-20T12:10:25.705Z,5.40
2022-09-20T12:12:59.530Z,5.60
2022-09-20T12:15:35.890Z,5.40
2022-09-20T12:18:15.616Z,5.60
2022-09-20T12:20:45.036Z,5.43
2022-09-20T12:23:42.592Z,6.97
2022-09-20T12:26:21.001Z,5.55
2022-09-20T12:28:56.105Z,4.57
2022-09-20T12:31:22.891Z,5.40
2022-09-20T12:34:15.406Z,5.73
2022-09-20T12:36:46.552Z,5.90
2022-09-20T12:39:15.290Z,7.00
2022-09-20T12:41:48.545Z,5.53
2022-09-20T12:44:37.106Z,4.75
2022-09-20T12:47:06.448Z,4.17
2022-09-20T12:50:06.677Z,4.20
2022-09-20T12:52:57.736Z,5.00
2022-09-20T12:55:30.208Z,2.20
2022-09-20T12:58:24.903Z,3.42
2022-09-20T13:01:14.336Z,3.30
2022-09-20T13:03:49.250Z,3.03
2022-09-20T13:06:16.598Z,3.50
2022-09-20T13:09:06.086Z,3.53
2022-09-20T13:11:39.639Z,3.28
2022-09-20T13:14:06.474Z,2.47
2022-09-20T13:16:35.933Z,3.13
2022-09-20T13:19:16.266Z,3.88
2022-09-20T13:22:07.925Z,2.78
2022-09-20T13:24:39.322Z,3.15
2022-09-20T13:27:09.379Z,3.13
2022-09-20T13:29:44.805Z,2.35
2022-09-20T13:32:22.508Z,3.58
2022-09-20T13:35:13.923Z,2.53
2022-09-20T13:37:46.081Z,3.80
2022-09-20T13:40:22.471Z,2.93
2022-09-20T13:42:52.408Z,3.83
2022-09-20T13:45:21.988Z,3.35
2022-09-20T13:47:51.333Z,3.08
2022-09-20T13:50:27.077Z,3.55
2022-09-20T13:52:58.576Z,2.70
2022-09-20T13:55:30.112Z,3.33
2022-09-20T13:58:02.889Z,2.80
2022-09-20T14:00:31.408Z,2.70
2022-09-20T14:02:58.702Z,3.35
2022-09-20T14:05:28.844Z,3.07
2022-09-20T14:07:56.737Z,2.92
2022-09-20T14:10:43.002Z,4.35
2022-09-20T14:13:15.895Z,2.30
2022-09-20T14:15:46.383Z,2.30
2022-09-20T14:18:22.142Z,3.53
2022-09-20T14:20:48.749Z,2.40
2022-09-20T14:23:23.970Z,2.13
2022-09-20T14:26:27.744Z,2.92
2022-09-20T14:28:54.866Z,2.28
2022-09-20T14:31:23.490Z,3.97
2022-09-20T14:33:55.261Z,2.00
2022-09-20T14:36:25.294Z,2.80
2022-09-20T14:38:58.833Z,4.57
2022-09-20T14:41:38.005Z,3.17
2022-09-20T14:44:07.024Z,2.70
2022-09-20T14:46:38.722Z,2.60
2022-09-20T14:49:30.791Z,2.38
2022-09-20T14:52:29.329Z,1.05
2022-09-20T14:55:21.133Z,1.90
2022-09-20T14:57:48.084Z,3.93
2022-09-20T15:00:16.399Z,1.98
2022-09-20T15:02:45.481Z,2.45
2022-09-20T15:05:26.562Z,3.58
2022-09-20T15:07:55.024Z,3.20
2022-09-20T15:10:22.329Z,4.30
2022-09-20T15:12:49.258Z,3.00
2022-09-20T15:15:18.780Z,2.53
2022-09-20T15:17:46.953Z,3.10
2022-09-20T15:20:18.685Z,3.25
2022-09-20T15:22:51.989Z,5.27
2022-09-20T15:25:21.102Z,6.18
2022-09-20T15:27:50.849Z,5.15
2022-09-20T15:30:19.859Z,4.88
2022-09-20T15:32:46.867Z,2.90
2022-09-20T15:35:14.251Z,2.33
2022-09-20T15:37:41.281Z,4.55
2022-09-20T15:40:09.310Z,8.50
2022-09-20T15:42:37.952Z,5.40
2022-09-20T15:45:11.516Z,4.35
2022-09-20T15:47:38.696Z,4.80
2022-09-20T15:50:08.460Z,6.32
2022-09-20T15:52:36.836Z,7.75
2022-09-20T15:55:04.013Z,6.20
2022-09-20T15:57:31.881Z,5.68
2022-09-20T15:59:59.440Z,6.03
2022-09-20T16:02:26.521Z,5.30
2022-09-20T16:04:57.470Z,5.40
2022-09-20T16:07:27.368Z,3.88
2022-09-20T16:09:57.230Z,3.25
2022-09-20T16:12:25.564Z,5.50
2022-09-20T16:14:51.949Z,9.05
2022-09-20T16:17:19.481Z,6.25
2022-09-20T16:19:46.358Z,5.38
2022-09-20T16:22:12.864Z,3.80
2022-09-20T16:24:39.601Z,4.00
2022-09-20T16:27:08.413Z,5.53
2022-09-20T16:29:34.900Z,6.75
2022-09-20T16:32:03.424Z,6.10
2022-09-20T16:34:34.935Z,7.50
2022-09-20T16:37:07.812Z,6.20
2022-09-20T16:39:34.709Z,6.28
2022-09-20T16:42:06.401Z,5.90
2022-09-20T16:44:34.497Z,6.80
2022-09-20T16:47:01.171Z,5.50
2022-09-20T16:49:28.742Z,6.33
2022-09-20T16:51:55.654Z,5.22
2022-09-20T16:54:22.241Z,5.03
2022-09-20T16:56:50.255Z,5.43
2022-09-20T16:59:18.944Z,5.63
2022-09-20T17:01:45.540Z,5.50
2022-09-20T17:04:17.514Z,5.60
2022-09-20T17:06:45.471Z,6.22
2022-09-20T17:09:13.103Z,5.35
2022-09-20T17:11:49.324Z,6.40
2022-09-20T17:14:18.538Z,6.50
2022-09-20T17:16:49.423Z,6.35
2022-09-20T17:19:18.502Z,6.47
2022-09-20T17:21:49.293Z,6.45
2022-09-20T17:24:17.668Z,6.05
2022-09-20T17:26:45.304Z,7.70
2022-09-20T17:29:15.212Z,6.53
2022-09-20T17:31:48.809Z,7.60
2022-09-20T17:34:17.416Z,6.10
2022-09-20T17:36:45.841Z,6.38
2022-09-20T17:39:14.204Z,6.77
2022-09-20T17:41:42.385Z,6.57
2022-09-20T17:44:10.012Z,12.68
2022-09-20T17:46:38.517Z,37.30
2022-09-20T17:49:07.697Z,38.85
2022-09-20T17:51:39.332Z,32.17
2022-09-20T17:54:06.854Z,29.00
2022-09-20T17:56:33.605Z,22.17
2022-09-20T17:59:02.142Z,20.63
2022-09-20T18:01:30.063Z,14.32
2022-09-20T18:03:58.299Z,14.93
2022-09-20T18:06:24.871Z,13.40
2022-09-20T18:08:53.490Z,13.50
2022-09-20T18:11:38.330Z,11.70
2022-09-20T18:14:07.104Z,11.73
2022-09-20T18:16:35.457Z,10.67
2022-09-20T18:19:01.926Z,10.52
2022-09-20T18:21:30.370Z,8.90
2022-09-20T18:23:57.405Z,8.85
2022-09-20T18:26:25.941Z,7.88
2022-09-20T18:29:12.384Z,8.67
2022-09-20T18:31:50.142Z,7.45
2022-09-20T18:34:19.168Z,7.93
2022-09-20T18:36:54.118Z,7.75
2022-09-20T18:39:21.940Z,9.60
2022-09-20T18:41:50.338Z,7.93
2022-09-20T18:44:18.545Z,8.35
2022-09-20T18:46:45.945Z,12.25
2022-09-20T18:49:14.697Z,10.10
2022-09-20T18:51:42.174Z,9.75
2022-09-20T18:54:10.506Z,9.30
2022-09-20T18:56:39.324Z,8.35
2022-09-20T18:59:26.573Z,8.65
2022-09-20T19:02:14.834Z,9.55
2022-09-20T19:05:11.975Z,9.57
2022-09-20T19:07:56.770Z,10.17
2022-09-20T19:10:43.533Z,9.25
2022-09-20T19:13:15.779Z,12.63
2022-09-20T19:16:10.149Z,8.93
2022-09-20T19:18:58.908Z,9.57
2022-09-20T19:21:48.066Z,10.77
2022-09-20T19:24:36.526Z,10.90
2022-09-20T19:27:03.132Z,10.73
2022-09-20T19:29:30.072Z,10.40
2022-09-20T19:31:58.964Z,12.40
2022-09-20T19:34:28.421Z,13.63
2022-09-20T19:37:23.145Z,14.18
2022-09-20T19:40:04.963Z,12.90
2022-09-20T19:42:52.964Z,12.57
2022-09-20T19:45:25.393Z,11.75
2022-09-20T19:48:04.093Z,12.97
2022-09-20T19:50:44.630Z,14.98
2022-09-20T19:53:12.305Z,11.10
2022-09-20T19:55:39.313Z,10.30
2022-09-20T19:58:05.947Z,9.23
2022-09-20T20:00:32.914Z,10.10
2022-09-20T20:02:59.785Z,11.38
2022-09-20T20:05:27.659Z,10.50
2022-09-20T20:08:18.516Z,9.98
2022-09-20T20:11:09.382Z,10.30
2022-09-20T20:14:04.046Z,10.93
2022-09-20T20:16:46.717Z,10.95
2022-09-20T20:19:29.989Z,11.45
2022-09-20T20:22:28.334Z,12.13
2022-09-20T20:24:56.644Z,10.50
2022-09-20T20:27:25.177Z,11.47
2022-09-20T20:29:52.158Z,9.65
2022-09-20T20:32:18.539Z,9.77
2022-09-20T20:34:45.194Z,12.18
2022-09-20T20:37:11.559Z,10.63
2022-09-20T20:39:37.942Z,12.10
2022-09-20T20:42:06.214Z,9.48
2022-09-20T20:44:34.940Z,9.85
2022-09-20T20:47:03.022Z,9.95
2022-09-20T20:49:29.400Z,8.20
2022-09-20T20:51:56.917Z,8.27
2022-09-20T20:54:23.378Z,9.57
2022-09-20T20:56:49.791Z,8.68
2022-09-20T20:59:17.446Z,8.18
2022-09-20T21:01:45.830Z,7.63
2022-09-20T21:04:13.541Z,9.30
2022-09-20T21:06:41.466Z,7.97
2022-09-20T21:09:09.893Z,9.15
2022-09-20T21:11:44.194Z,7.93
2022-09-20T21:14:12.668Z,8.10
2022-09-20T21:16:43.127Z,9.33
2022-09-20T21:19:14.608Z,9.48
2022-09-20T21:21:42.698Z,7.32
2022-09-20T21:24:11.605Z,8.85
2022-09-20T21:26:39.633Z,8.25
2022-09-20T21:29:08.141Z,7.43
2022-09-20T21:31:36.877Z,6.60
2022-09-20T21:34:11.135Z,6.63
2022-09-20T21:36:39.385Z,9.23
2022-09-20T21:39:06.095Z,7.60
2022-09-20T21:41:35.092Z,7.37
2022-09-20T21:44:03.026Z,6.93
2022-09-20T21:46:39.935Z,6.30
2022-09-20T21:49:08.567Z,6.72
2022-09-20T21:51:35.958Z,7.78
2022-09-20T21:54:03.073Z,8.20
2022-09-20T21:56:35.294Z,8.23
2022-09-20T21:59:04.003Z,7.88
2022-09-20T22:01:34.852Z,6.57
2022-09-20T22:04:06.447Z,10.63
2022-09-20T22:06:36.279Z,8.00
2022-09-20T22:09:08.720Z,7.57
2022-09-20T22:11:42.272Z,6.70
2022-09-20T22:14:09.931Z,6.43
2022-09-20T22:16:41.241Z,6.68
2022-09-20T22:19:09.706Z,7.03
2022-09-20T22:21:38.998Z,7.18
2022-09-20T22:24:07.870Z,6.60
2022-09-20T22:26:40.579Z,8.25
2022-09-20T22:29:07.613Z,6.55
2022-09-20T22:31:36.086Z,9.13
2022-09-20T22:34:05.520Z,6.15
2022-09-20T22:36:34.610Z,8.68
2022-09-20T22:39:01.400Z,7.35
2022-09-20T22:41:28.232Z,7.43
2022-09-20T22:43:55.168Z,7.93
2022-09-20T22:46:24.623Z,7.35
2022-09-20T22:48:51.422Z,6.20
2022-09-20T22:51:20.027Z,6.60
2022-09-20T22:53:47.464Z,7.20
2022-09-20T22:56:16.760Z,6.67
2022-09-20T22:58:46.063Z,7.57
2022-09-20T23:01:19.023Z,7.00
2022-09-20T23:03:55.122Z,7.30
2022-09-20T23:06:26.840Z,8.93
2022-09-20T23:08:56.268Z,9.80
2022-09-20T23:11:23.281Z,10.45
2022-09-20T23:13:59.391Z,7.93
2022-09-20T23:16:30.242Z,8.13
2022-09-20T23:18:59.015Z,10.38
2022-09-20T23:21:25.987Z,12.17
2022-09-20T23:23:54.084Z,8.30
2022-09-20T23:26:20.931Z,7.43
2022-09-20T23:28:53.870Z,7.13
2022-09-20T23:31:20.302Z,6.28
2022-09-20T23:33:51.551Z,9.67
2022-09-20T23:36:18.889Z,8.50
2022-09-20T23:38:45.876Z,6.30
2022-09-20T23:41:14.384Z,6.68
2022-09-20T23:43:42.280Z,7.90
2022-09-20T23:46:10.597Z,7.10
2022-09-20T23:48:38.146Z,7.18
2022-09-20T23:51:05.769Z,7.38
2022-09-20T23:53:32.574Z,7.93
2022-09-20T23:55:58.988Z,8.05
2022-09-20T23:58:25.487Z,9.53
